sensor_id;sensor_type;location;lat;lon;timestamp;temperature;humidity
68215;DHT22;55036;52.138;5.236;2023-03-11T00:00:30;2.80;90.20
68215;DHT22;55036;52.138;5.236;2023-03-11T00:02:59;2.80;90.10
68215;DHT22;55036;52.138;5.236;2023-03-11T00:05:33;2.80;90.00
68215;DHT22;55036;52.138;5.236;2023-03-11T00:08:01;2.80;90.00
68215;DHT22;55036;52.138;5.236;2023-03-11T00:10:34;2.70;90.00
68215;DHT22;55036;52.138;5.236;2023-03-11T00:13:01;2.70;90.10
68215;DHT22;55036;52.138;5.236;2023-03-11T00:15:29;2.70;90.00
68215;DHT22;55036;52.138;5.236;2023-03-11T00:17:56;2.70;90.00
68215;DHT22;55036;52.138;5.236;2023-03-11T00:20:35;2.70;89.70
68215;DHT22;55036;52.138;5.236;2023-03-11T00:23:03;2.70;89.70
68215;DHT22;55036;52.138;5.236;2023-03-11T00:25:31;2.70;89.90
68215;DHT22;55036;52.138;5.236;2023-03-11T00:27:58;2.70;90.00
68215;DHT22;55036;52.138;5.236;2023-03-11T00:30:26;2.70;90.00
68215;DHT22;55036;52.138;5.236;2023-03-11T00:32:55;2.80;90.00
68215;DHT22;55036;52.138;5.236;2023-03-11T00:35:25;2.80;89.90
68215;DHT22;55036;52.138;5.236;2023-03-11T00:37:54;2.80;89.80
68215;DHT22;55036;52.138;5.236;2023-03-11T00:40:23;2.80;90.00
68215;DHT22;55036;52.138;5.236;2023-03-11T00:42:50;2.80;90.00
68215;DHT22;55036;52.138;5.236;2023-03-11T00:45:19;2.80;90.00
68215;DHT22;55036;52.138;5.236;2023-03-11T00:47:46;2.80;90.00
68215;DHT22;55036;52.138;5.236;2023-03-11T00:50:16;2.80;89.90
68215;DHT22;55036;52.138;5.236;2023-03-11T00:52:45;2.80;89.80
68215;DHT22;55036;52.138;5.236;2023-03-11T00:55:13;2.80;89.80
68215;DHT22;55036;52.138;5.236;2023-03-11T00:57:41;2.80;89.60
68215;DHT22;55036;52.138;5.236;2023-03-11T01:00:15;2.80;89.40
68215;DHT22;55036;52.138;5.236;2023-03-11T01:02:42;2.80;89.30
68215;DHT22;55036;52.138;5.236;2023-03-11T01:05:10;2.70;89.20
68215;DHT22;55036;52.138;5.236;2023-03-11T01:07:36;2.80;89.50
68215;DHT22;55036;52.138;5.236;2023-03-11T01:10:05;2.80;89.50
68215;DHT22;55036;52.138;5.236;2023-03-11T01:12:32;2.80;89.50
68215;DHT22;55036;52.138;5.236;2023-03-11T01:14:59;2.70;89.10
68215;DHT22;55036;52.138;5.236;2023-03-11T01:17:26;2.70;89.10
68215;DHT22;55036;52.138;5.236;2023-03-11T01:19:53;2.70;89.40
68215;DHT22;55036;52.138;5.236;2023-03-11T01:22:19;2.70;89.20
68215;DHT22;55036;52.138;5.236;2023-03-11T01:24:46;2.70;89.10
68215;DHT22;55036;52.138;5.236;2023-03-11T01:27:13;2.60;89.00
68215;DHT22;55036;52.138;5.236;2023-03-11T01:29:39;2.60;89.00
68215;DHT22;55036;52.138;5.236;2023-03-11T01:32:06;2.60;89.20
68215;DHT22;55036;52.138;5.236;2023-03-11T01:34:33;2.60;89.10
68215;DHT22;55036;52.138;5.236;2023-03-11T01:37:04;2.60;89.00
68215;DHT22;55036;52.138;5.236;2023-03-11T01:39:31;2.60;89.20
68215;DHT22;55036;52.138;5.236;2023-03-11T01:41:57;2.60;89.10
68215;DHT22;55036;52.138;5.236;2023-03-11T01:44:24;2.60;89.20
68215;DHT22;55036;52.138;5.236;2023-03-11T01:49:19;2.60;89.40
68215;DHT22;55036;52.138;5.236;2023-03-11T01:51:48;2.60;89.40
68215;DHT22;55036;52.138;5.236;2023-03-11T01:56:49;2.60;90.10
68215;DHT22;55036;52.138;5.236;2023-03-11T01:59:20;2.60;89.30
68215;DHT22;55036;52.138;5.236;2023-03-11T02:02:20;2.50;89.20
68215;DHT22;55036;52.138;5.236;2023-03-11T02:04:50;2.50;88.90
68215;DHT22;55036;52.138;5.236;2023-03-11T02:07:16;2.50;89.10
68215;DHT22;55036;52.138;5.236;2023-03-11T02:09:43;2.40;88.90
68215;DHT22;55036;52.138;5.236;2023-03-11T02:12:12;2.40;88.80
68215;DHT22;55036;52.138;5.236;2023-03-11T02:14:42;2.40;88.80
68215;DHT22;55036;52.138;5.236;2023-03-11T02:17:12;2.40;89.10
68215;DHT22;55036;52.138;5.236;2023-03-11T02:19:55;2.40;89.30
68215;DHT22;55036;52.138;5.236;2023-03-11T02:22:25;2.40;89.30
68215;DHT22;55036;52.138;5.236;2023-03-11T02:26:04;2.40;89.30
68215;DHT22;55036;52.138;5.236;2023-03-11T02:27:58;2.40;89.20
68215;DHT22;55036;52.138;5.236;2023-03-11T02:30:26;2.30;88.90
68215;DHT22;55036;52.138;5.236;2023-03-11T02:32:53;2.30;88.90
68215;DHT22;55036;52.138;5.236;2023-03-11T02:35:21;2.20;88.70
68215;DHT22;55036;52.138;5.236;2023-03-11T02:37:50;2.20;88.50
68215;DHT22;55036;52.138;5.236;2023-03-11T02:42:54;2.10;88.80
68215;DHT22;55036;52.138;5.236;2023-03-11T02:45:23;2.10;88.60
68215;DHT22;55036;52.138;5.236;2023-03-11T02:47:55;2.10;88.80
68215;DHT22;55036;52.138;5.236;2023-03-11T02:50:23;2.10;88.50
68215;DHT22;55036;52.138;5.236;2023-03-11T02:52:51;2.00;88.70
68215;DHT22;55036;52.138;5.236;2023-03-11T02:55:19;2.00;88.80
68215;DHT22;55036;52.138;5.236;2023-03-11T02:57:47;2.00;88.90
68215;DHT22;55036;52.138;5.236;2023-03-11T03:00:16;2.00;88.90
68215;DHT22;55036;52.138;5.236;2023-03-11T03:02:44;2.00;88.80
68215;DHT22;55036;52.138;5.236;2023-03-11T03:05:12;2.00;88.90
68215;DHT22;55036;52.138;5.236;2023-03-11T03:07:39;1.90;88.70
68215;DHT22;55036;52.138;5.236;2023-03-11T03:10:07;1.90;89.00
68215;DHT22;55036;52.138;5.236;2023-03-11T03:12:34;2.00;88.50
68215;DHT22;55036;52.138;5.236;2023-03-11T03:15:00;1.90;88.40
68215;DHT22;55036;52.138;5.236;2023-03-11T03:17:27;1.90;88.60
68215;DHT22;55036;52.138;5.236;2023-03-11T03:19:54;1.80;88.40
68215;DHT22;55036;52.138;5.236;2023-03-11T03:22:20;1.80;88.40
68215;DHT22;55036;52.138;5.236;2023-03-11T03:24:47;1.80;88.40
68215;DHT22;55036;52.138;5.236;2023-03-11T03:27:14;1.80;88.10
68215;DHT22;55036;52.138;5.236;2023-03-11T03:29:40;1.70;88.00
68215;DHT22;55036;52.138;5.236;2023-03-11T03:32:07;1.70;88.10
68215;DHT22;55036;52.138;5.236;2023-03-11T03:34:34;1.70;88.10
68215;DHT22;55036;52.138;5.236;2023-03-11T03:37:00;1.60;87.90
68215;DHT22;55036;52.138;5.236;2023-03-11T03:39:27;1.60;87.80
68215;DHT22;55036;52.138;5.236;2023-03-11T03:41:56;1.50;87.90
68215;DHT22;55036;52.138;5.236;2023-03-11T03:44:22;1.50;87.90
68215;DHT22;55036;52.138;5.236;2023-03-11T03:46:49;1.50;88.10
68215;DHT22;55036;52.138;5.236;2023-03-11T03:49:16;1.50;88.10
68215;DHT22;55036;52.138;5.236;2023-03-11T03:51:43;1.50;88.00
68215;DHT22;55036;52.138;5.236;2023-03-11T03:54:09;1.40;88.10
68215;DHT22;55036;52.138;5.236;2023-03-11T03:56:36;1.50;88.10
68215;DHT22;55036;52.138;5.236;2023-03-11T03:59:02;1.50;88.20
68215;DHT22;55036;52.138;5.236;2023-03-11T04:01:29;1.50;88.40
68215;DHT22;55036;52.138;5.236;2023-03-11T04:03:56;1.40;88.00
68215;DHT22;55036;52.138;5.236;2023-03-11T04:06:25;1.40;87.80
68215;DHT22;55036;52.138;5.236;2023-03-11T04:08:53;1.40;88.20
68215;DHT22;55036;52.138;5.236;2023-03-11T04:11:20;1.40;88.00
68215;DHT22;55036;52.138;5.236;2023-03-11T04:13:47;1.40;88.10
68215;DHT22;55036;52.138;5.236;2023-03-11T04:16:21;1.40;88.10
68215;DHT22;55036;52.138;5.236;2023-03-11T04:18:49;1.40;88.20
68215;DHT22;55036;52.138;5.236;2023-03-11T04:21:16;1.30;87.90
68215;DHT22;55036;52.138;5.236;2023-03-11T04:23:43;1.30;88.10
68215;DHT22;55036;52.138;5.236;2023-03-11T04:26:09;1.30;88.10
68215;DHT22;55036;52.138;5.236;2023-03-11T04:28:36;1.30;87.90
68215;DHT22;55036;52.138;5.236;2023-03-11T04:31:03;1.30;87.90
68215;DHT22;55036;52.138;5.236;2023-03-11T04:33:30;1.20;87.70
68215;DHT22;55036;52.138;5.236;2023-03-11T04:35:57;1.20;87.90
68215;DHT22;55036;52.138;5.236;2023-03-11T04:38:24;1.20;87.90
68215;DHT22;55036;52.138;5.236;2023-03-11T04:40:50;1.20;88.00
68215;DHT22;55036;52.138;5.236;2023-03-11T04:43:17;1.20;87.80
68215;DHT22;55036;52.138;5.236;2023-03-11T04:45:44;1.20;88.00
68215;DHT22;55036;52.138;5.236;2023-03-11T04:48:10;1.20;88.10
68215;DHT22;55036;52.138;5.236;2023-03-11T04:50:37;1.20;87.80
68215;DHT22;55036;52.138;5.236;2023-03-11T04:53:04;1.20;87.70
68215;DHT22;55036;52.138;5.236;2023-03-11T04:55:30;1.10;87.60
68215;DHT22;55036;52.138;5.236;2023-03-11T04:57:58;1.10;87.60
68215;DHT22;55036;52.138;5.236;2023-03-11T05:00:25;1.10;87.80
68215;DHT22;55036;52.138;5.236;2023-03-11T05:02:52;1.10;87.80
68215;DHT22;55036;52.138;5.236;2023-03-11T05:05:19;1.10;87.60
68215;DHT22;55036;52.138;5.236;2023-03-11T05:07:46;1.10;87.60
68215;DHT22;55036;52.138;5.236;2023-03-11T05:10:14;1.10;87.50
68215;DHT22;55036;52.138;5.236;2023-03-11T05:12:40;1.10;87.20
68215;DHT22;55036;52.138;5.236;2023-03-11T05:15:07;1.00;87.30
68215;DHT22;55036;52.138;5.236;2023-03-11T05:17:34;1.00;87.30
68215;DHT22;55036;52.138;5.236;2023-03-11T05:20:00;1.00;87.50
68215;DHT22;55036;52.138;5.236;2023-03-11T05:22:27;1.00;87.40
68215;DHT22;55036;52.138;5.236;2023-03-11T05:24:54;1.00;87.30
68215;DHT22;55036;52.138;5.236;2023-03-11T05:27:20;0.90;87.00
68215;DHT22;55036;52.138;5.236;2023-03-11T05:29:47;0.90;87.20
68215;DHT22;55036;52.138;5.236;2023-03-11T05:32:14;0.90;87.10
68215;DHT22;55036;52.138;5.236;2023-03-11T05:34:41;0.90;87.00
68215;DHT22;55036;52.138;5.236;2023-03-11T05:37:08;0.90;87.30
68215;DHT22;55036;52.138;5.236;2023-03-11T05:39:34;0.80;87.10
68215;DHT22;55036;52.138;5.236;2023-03-11T05:42:04;0.80;87.10
68215;DHT22;55036;52.138;5.236;2023-03-11T05:44:32;0.80;87.20
68215;DHT22;55036;52.138;5.236;2023-03-11T05:46:59;0.80;88.20
68215;DHT22;55036;52.138;5.236;2023-03-11T05:49:26;0.80;87.00
68215;DHT22;55036;52.138;5.236;2023-03-11T05:51:53;0.80;87.00
68215;DHT22;55036;52.138;5.236;2023-03-11T05:54:23;0.80;87.20
68215;DHT22;55036;52.138;5.236;2023-03-11T05:56:50;0.80;87.10
68215;DHT22;55036;52.138;5.236;2023-03-11T05:59:16;0.70;86.70
68215;DHT22;55036;52.138;5.236;2023-03-11T06:01:43;0.80;86.80
68215;DHT22;55036;52.138;5.236;2023-03-11T06:04:11;0.70;86.80
68215;DHT22;55036;52.138;5.236;2023-03-11T06:06:38;0.70;86.90
68215;DHT22;55036;52.138;5.236;2023-03-11T06:09:09;0.70;87.00
68215;DHT22;55036;52.138;5.236;2023-03-11T06:11:36;0.70;87.00
68215;DHT22;55036;52.138;5.236;2023-03-11T06:14:03;0.70;86.80
68215;DHT22;55036;52.138;5.236;2023-03-11T06:16:30;0.70;86.80
68215;DHT22;55036;52.138;5.236;2023-03-11T06:18:57;0.70;87.00
68215;DHT22;55036;52.138;5.236;2023-03-11T06:21:26;0.70;86.90
68215;DHT22;55036;52.138;5.236;2023-03-11T06:23:52;0.70;86.90
68215;DHT22;55036;52.138;5.236;2023-03-11T06:26:20;0.80;87.90
68215;DHT22;55036;52.138;5.236;2023-03-11T06:28:48;0.70;86.70
68215;DHT22;55036;52.138;5.236;2023-03-11T06:31:21;0.80;86.80
68215;DHT22;55036;52.138;5.236;2023-03-11T06:33:48;0.80;86.80
68215;DHT22;55036;52.138;5.236;2023-03-11T06:36:16;0.90;86.90
68215;DHT22;55036;52.138;5.236;2023-03-11T06:38:43;0.90;86.90
68215;DHT22;55036;52.138;5.236;2023-03-11T06:41:12;1.00;86.90
68215;DHT22;55036;52.138;5.236;2023-03-11T06:43:38;1.10;86.80
68215;DHT22;55036;52.138;5.236;2023-03-11T06:46:10;1.10;86.30
68215;DHT22;55036;52.138;5.236;2023-03-11T06:48:38;1.10;86.10
68215;DHT22;55036;52.138;5.236;2023-03-11T06:51:04;1.10;86.20
68215;DHT22;55036;52.138;5.236;2023-03-11T06:53:31;1.10;86.20
68215;DHT22;55036;52.138;5.236;2023-03-11T06:56:06;1.10;86.20
68215;DHT22;55036;52.138;5.236;2023-03-11T06:58:35;1.20;86.20
68215;DHT22;55036;52.138;5.236;2023-03-11T07:01:13;1.30;86.10
68215;DHT22;55036;52.138;5.236;2023-03-11T07:03:41;1.30;85.90
68215;DHT22;55036;52.138;5.236;2023-03-11T07:06:22;1.30;85.80
68215;DHT22;55036;52.138;5.236;2023-03-11T07:08:51;1.30;85.70
68215;DHT22;55036;52.138;5.236;2023-03-11T07:11:21;1.20;85.60
68215;DHT22;55036;52.138;5.236;2023-03-11T07:13:49;1.20;86.00
68215;DHT22;55036;52.138;5.236;2023-03-11T07:16:19;1.20;85.90
68215;DHT22;55036;52.138;5.236;2023-03-11T07:18:47;1.20;86.00
68215;DHT22;55036;52.138;5.236;2023-03-11T07:21:16;1.20;86.10
68215;DHT22;55036;52.138;5.236;2023-03-11T07:23:43;1.30;86.30
68215;DHT22;55036;52.138;5.236;2023-03-11T07:26:12;1.30;86.20
68215;DHT22;55036;52.138;5.236;2023-03-11T07:28:40;1.40;86.20
68215;DHT22;55036;52.138;5.236;2023-03-11T07:31:12;1.40;86.20
68215;DHT22;55036;52.138;5.236;2023-03-11T07:33:39;1.50;86.70
68215;DHT22;55036;52.138;5.236;2023-03-11T07:36:08;1.50;86.90
68215;DHT22;55036;52.138;5.236;2023-03-11T07:38:36;1.60;87.10
68215;DHT22;55036;52.138;5.236;2023-03-11T07:41:03;1.60;87.20
68215;DHT22;55036;52.138;5.236;2023-03-11T07:43:30;1.70;87.40
68215;DHT22;55036;52.138;5.236;2023-03-11T07:46:06;1.70;87.60
68215;DHT22;55036;52.138;5.236;2023-03-11T07:48:33;1.80;87.90
68215;DHT22;55036;52.138;5.236;2023-03-11T07:51:02;1.90;88.20
68215;DHT22;55036;52.138;5.236;2023-03-11T07:53:28;2.10;88.30
68215;DHT22;55036;52.138;5.236;2023-03-11T07:55:57;2.10;88.30
68215;DHT22;55036;52.138;5.236;2023-03-11T07:58:24;2.30;88.40
68215;DHT22;55036;52.138;5.236;2023-03-11T08:00:52;2.40;88.40
68215;DHT22;55036;52.138;5.236;2023-03-11T08:03:20;2.50;88.40
68215;DHT22;55036;52.138;5.236;2023-03-11T08:05:46;2.60;88.20
68215;DHT22;55036;52.138;5.236;2023-03-11T08:08:13;2.80;88.10
68215;DHT22;55036;52.138;5.236;2023-03-11T08:10:40;2.90;88.40
68215;DHT22;55036;52.138;5.236;2023-03-11T08:13:06;3.10;88.70
68215;DHT22;55036;52.138;5.236;2023-03-11T08:15:33;3.40;88.90
68215;DHT22;55036;52.138;5.236;2023-03-11T08:18:00;3.50;88.80
68215;DHT22;55036;52.138;5.236;2023-03-11T08:20:26;3.70;88.80
68215;DHT22;55036;52.138;5.236;2023-03-11T08:22:53;3.90;88.70
68215;DHT22;55036;52.138;5.236;2023-03-11T08:25:24;4.10;88.50
68215;DHT22;55036;52.138;5.236;2023-03-11T08:27:50;4.30;88.40
68215;DHT22;55036;52.138;5.236;2023-03-11T08:30:17;4.50;88.30
68215;DHT22;55036;52.138;5.236;2023-03-11T08:32:44;4.70;88.10
68215;DHT22;55036;52.138;5.236;2023-03-11T08:35:11;4.90;87.90
68215;DHT22;55036;52.138;5.236;2023-03-11T08:37:38;5.00;87.60
68215;DHT22;55036;52.138;5.236;2023-03-11T08:40:05;5.20;87.40
68215;DHT22;55036;52.138;5.236;2023-03-11T08:42:31;5.40;86.30
68215;DHT22;55036;52.138;5.236;2023-03-11T08:44:58;5.50;86.20
68215;DHT22;55036;52.138;5.236;2023-03-11T08:47:25;5.60;85.70
68215;DHT22;55036;52.138;5.236;2023-03-11T08:49:51;5.70;85.50
68215;DHT22;55036;52.138;5.236;2023-03-11T08:52:18;5.80;85.50
68215;DHT22;55036;52.138;5.236;2023-03-11T08:54:45;5.90;84.00
68215;DHT22;55036;52.138;5.236;2023-03-11T08:57:11;6.10;84.70
68215;DHT22;55036;52.138;5.236;2023-03-11T08:59:38;6.30;83.40
68215;DHT22;55036;52.138;5.236;2023-03-11T09:02:05;6.10;81.10
68215;DHT22;55036;52.138;5.236;2023-03-11T09:04:31;6.30;82.80
68215;DHT22;55036;52.138;5.236;2023-03-11T09:06:58;6.30;82.30
68215;DHT22;55036;52.138;5.236;2023-03-11T09:09:25;6.40;82.60
68215;DHT22;55036;52.138;5.236;2023-03-11T09:11:51;6.50;82.20
68215;DHT22;55036;52.138;5.236;2023-03-11T09:14:18;6.50;82.60
68215;DHT22;55036;52.138;5.236;2023-03-11T09:16:45;6.50;82.70
68215;DHT22;55036;52.138;5.236;2023-03-11T09:19:11;6.50;82.10
68215;DHT22;55036;52.138;5.236;2023-03-11T09:21:38;6.50;82.70
68215;DHT22;55036;52.138;5.236;2023-03-11T09:24:06;6.50;82.30
68215;DHT22;55036;52.138;5.236;2023-03-11T09:26:32;6.50;80.70
68215;DHT22;55036;52.138;5.236;2023-03-11T09:28:59;6.50;81.40
68215;DHT22;55036;52.138;5.236;2023-03-11T09:31:26;6.60;82.00
68215;DHT22;55036;52.138;5.236;2023-03-11T09:33:52;6.70;81.60
68215;DHT22;55036;52.138;5.236;2023-03-11T09:36:21;6.70;80.80
68215;DHT22;55036;52.138;5.236;2023-03-11T09:38:48;6.70;81.10
68215;DHT22;55036;52.138;5.236;2023-03-11T09:44:42;6.90;81.30
68215;DHT22;55036;52.138;5.236;2023-03-11T09:47:37;7.30;82.00
68215;DHT22;55036;52.138;5.236;2023-03-11T09:58:03;7.80;76.30
68215;DHT22;55036;52.138;5.236;2023-03-11T10:00:32;7.80;76.30
68215;DHT22;55036;52.138;5.236;2023-03-11T10:03:00;8.00;77.80
68215;DHT22;55036;52.138;5.236;2023-03-11T10:05:28;8.30;77.70
68215;DHT22;55036;52.138;5.236;2023-03-11T10:08:03;8.50;72.80
68215;DHT22;55036;52.138;5.236;2023-03-11T10:10:37;8.30;74.00
68215;DHT22;55036;52.138;5.236;2023-03-11T10:13:09;8.30;72.70
68215;DHT22;55036;52.138;5.236;2023-03-11T10:15:55;8.10;72.80
68215;DHT22;55036;52.138;5.236;2023-03-11T10:24:08;8.00;72.70
68215;DHT22;55036;52.138;5.236;2023-03-11T10:26:49;7.90;72.80
68215;DHT22;55036;52.138;5.236;2023-03-11T10:31:59;7.60;71.20
68215;DHT22;55036;52.138;5.236;2023-03-11T10:39:31;8.00;70.80
68215;DHT22;55036;52.138;5.236;2023-03-11T10:42:04;7.90;71.00
68215;DHT22;55036;52.138;5.236;2023-03-11T10:44:38;8.00;71.00
68215;DHT22;55036;52.138;5.236;2023-03-11T10:47:12;8.00;70.10
68215;DHT22;55036;52.138;5.236;2023-03-11T10:49:40;8.10;71.20
68215;DHT22;55036;52.138;5.236;2023-03-11T10:52:07;8.10;66.20
68215;DHT22;55036;52.138;5.236;2023-03-11T10:54:40;8.10;68.70
68215;DHT22;55036;52.138;5.236;2023-03-11T10:57:23;8.30;69.60
68215;DHT22;55036;52.138;5.236;2023-03-11T10:59:55;8.70;68.50
68215;DHT22;55036;52.138;5.236;2023-03-11T11:02:27;8.80;66.30
68215;DHT22;55036;52.138;5.236;2023-03-11T11:07:50;8.80;67.40
68215;DHT22;55036;52.138;5.236;2023-03-11T11:10:23;9.00;68.10
68215;DHT22;55036;52.138;5.236;2023-03-11T11:13:00;9.00;65.90
68215;DHT22;55036;52.138;5.236;2023-03-11T11:15:37;8.90;64.30
68215;DHT22;55036;52.138;5.236;2023-03-11T11:18:20;8.90;59.80
68215;DHT22;55036;52.138;5.236;2023-03-11T11:23:37;9.00;63.70
68215;DHT22;55036;52.138;5.236;2023-03-11T11:26:22;9.00;58.20
68215;DHT22;55036;52.138;5.236;2023-03-11T11:31:35;8.70;63.60
68215;DHT22;55036;52.138;5.236;2023-03-11T11:34:02;9.00;63.60
68215;DHT22;55036;52.138;5.236;2023-03-11T11:36:31;9.30;63.70
68215;DHT22;55036;52.138;5.236;2023-03-11T11:39:00;9.20;61.70
68215;DHT22;55036;52.138;5.236;2023-03-11T11:41:32;9.20;62.30
68215;DHT22;55036;52.138;5.236;2023-03-11T11:44:03;9.20;62.20
68215;DHT22;55036;52.138;5.236;2023-03-11T11:46:41;9.30;62.70
68215;DHT22;55036;52.138;5.236;2023-03-11T11:52:14;9.40;61.10
68215;DHT22;55036;52.138;5.236;2023-03-11T11:57:14;9.30;57.80
68215;DHT22;55036;52.138;5.236;2023-03-11T11:59:42;9.20;58.50
68215;DHT22;55036;52.138;5.236;2023-03-11T12:07:50;9.00;54.40
68215;DHT22;55036;52.138;5.236;2023-03-11T12:10:26;8.90;58.70
68215;DHT22;55036;52.138;5.236;2023-03-11T12:13:19;9.00;55.30
68215;DHT22;55036;52.138;5.236;2023-03-11T12:21:58;9.30;57.30
68215;DHT22;55036;52.138;5.236;2023-03-11T12:25:13;9.30;53.40
68215;DHT22;55036;52.138;5.236;2023-03-11T12:27:46;9.30;56.50
68215;DHT22;55036;52.138;5.236;2023-03-11T12:30:36;9.10;54.50
68215;DHT22;55036;52.138;5.236;2023-03-11T12:33:08;9.20;53.50
68215;DHT22;55036;52.138;5.236;2023-03-11T12:35:37;9.30;55.90
68215;DHT22;55036;52.138;5.236;2023-03-11T12:38:31;9.60;56.90
68215;DHT22;55036;52.138;5.236;2023-03-11T12:40:59;9.70;54.50
68215;DHT22;55036;52.138;5.236;2023-03-11T12:43:55;9.80;53.10
68215;DHT22;55036;52.138;5.236;2023-03-11T12:46:15;9.60;51.20
68215;DHT22;55036;52.138;5.236;2023-03-11T12:48:47;9.50;54.20
68215;DHT22;55036;52.138;5.236;2023-03-11T12:54:31;9.80;53.70
68215;DHT22;55036;52.138;5.236;2023-03-11T13:00:26;9.70;50.20
68215;DHT22;55036;52.138;5.236;2023-03-11T13:06:14;9.50;49.30
68215;DHT22;55036;52.138;5.236;2023-03-11T13:08:47;9.50;51.20
68215;DHT22;55036;52.138;5.236;2023-03-11T13:16:49;9.50;50.00
68215;DHT22;55036;52.138;5.236;2023-03-11T13:21:52;9.70;48.50
68215;DHT22;55036;52.138;5.236;2023-03-11T13:26:48;9.40;48.10
68215;DHT22;55036;52.138;5.236;2023-03-11T13:40:48;9.70;47.90
68215;DHT22;55036;52.138;5.236;2023-03-11T13:43:21;9.30;45.50
68215;DHT22;55036;52.138;5.236;2023-03-11T13:46:01;9.30;47.10
68215;DHT22;55036;52.138;5.236;2023-03-11T13:48:36;9.30;46.00
68215;DHT22;55036;52.138;5.236;2023-03-11T13:51:17;9.40;48.10
68215;DHT22;55036;52.138;5.236;2023-03-11T13:56:49;9.40;45.00
68215;DHT22;55036;52.138;5.236;2023-03-11T13:59:23;9.20;46.70
68215;DHT22;55036;52.138;5.236;2023-03-11T14:01:59;9.10;47.10
68215;DHT22;55036;52.138;5.236;2023-03-11T14:04:29;9.20;46.60
68215;DHT22;55036;52.138;5.236;2023-03-11T14:06:57;9.00;45.30
68215;DHT22;55036;52.138;5.236;2023-03-11T14:09:26;9.00;47.40
68215;DHT22;55036;52.138;5.236;2023-03-11T14:11:57;9.20;47.30
68215;DHT22;55036;52.138;5.236;2023-03-11T14:14:57;9.00;46.80
68215;DHT22;55036;52.138;5.236;2023-03-11T14:17:26;8.90;46.40
68215;DHT22;55036;52.138;5.236;2023-03-11T14:20:11;8.90;46.40
68215;DHT22;55036;52.138;5.236;2023-03-11T14:22:38;9.00;47.70
68215;DHT22;55036;52.138;5.236;2023-03-11T14:25:07;9.00;47.40
68215;DHT22;55036;52.138;5.236;2023-03-11T14:27:38;8.90;47.10
68215;DHT22;55036;52.138;5.236;2023-03-11T14:30:05;9.00;46.30
68215;DHT22;55036;52.138;5.236;2023-03-11T14:32:34;9.00;46.80
68215;DHT22;55036;52.138;5.236;2023-03-11T14:35:01;8.80;45.90
68215;DHT22;55036;52.138;5.236;2023-03-11T14:37:42;8.60;46.40
68215;DHT22;55036;52.138;5.236;2023-03-11T14:40:30;8.60;47.60
68215;DHT22;55036;52.138;5.236;2023-03-11T14:43:03;8.50;47.80
68215;DHT22;55036;52.138;5.236;2023-03-11T14:45:32;8.50;47.70
68215;DHT22;55036;52.138;5.236;2023-03-11T14:48:07;8.50;48.30
68215;DHT22;55036;52.138;5.236;2023-03-11T14:50:35;8.50;47.40
68215;DHT22;55036;52.138;5.236;2023-03-11T14:55:33;8.50;46.50
68215;DHT22;55036;52.138;5.236;2023-03-11T14:58:13;8.80;46.90
68215;DHT22;55036;52.138;5.236;2023-03-11T15:00:49;8.90;46.00
68215;DHT22;55036;52.138;5.236;2023-03-11T15:03:22;8.80;45.60
68215;DHT22;55036;52.138;5.236;2023-03-11T15:05:58;8.90;47.00
68215;DHT22;55036;52.138;5.236;2023-03-11T15:08:33;8.80;45.80
68215;DHT22;55036;52.138;5.236;2023-03-11T15:13:29;8.90;46.10
68215;DHT22;55036;52.138;5.236;2023-03-11T15:15:57;8.70;45.20
68215;DHT22;55036;52.138;5.236;2023-03-11T15:18:29;8.60;45.60
68215;DHT22;55036;52.138;5.236;2023-03-11T15:21:10;8.70;47.40
68215;DHT22;55036;52.138;5.236;2023-03-11T15:23:39;8.70;46.20
68215;DHT22;55036;52.138;5.236;2023-03-11T15:26:18;8.90;46.70
68215;DHT22;55036;52.138;5.236;2023-03-11T15:28:53;9.00;46.00
68215;DHT22;55036;52.138;5.236;2023-03-11T15:33:47;8.80;45.00
68215;DHT22;55036;52.138;5.236;2023-03-11T15:36:29;8.80;46.00
68215;DHT22;55036;52.138;5.236;2023-03-11T15:39:27;8.80;45.60
68215;DHT22;55036;52.138;5.236;2023-03-11T15:44:34;8.70;45.50
68215;DHT22;55036;52.138;5.236;2023-03-11T15:47:02;8.70;45.00
68215;DHT22;55036;52.138;5.236;2023-03-11T15:49:29;8.70;45.10
68215;DHT22;55036;52.138;5.236;2023-03-11T15:52:00;8.50;45.20
68215;DHT22;55036;52.138;5.236;2023-03-11T15:54:27;8.50;45.30
68215;DHT22;55036;52.138;5.236;2023-03-11T15:56:56;8.40;44.80
68215;DHT22;55036;52.138;5.236;2023-03-11T15:59:24;8.40;45.80
68215;DHT22;55036;52.138;5.236;2023-03-11T16:01:51;8.50;46.10
68215;DHT22;55036;52.138;5.236;2023-03-11T16:04:19;8.50;46.10
68215;DHT22;55036;52.138;5.236;2023-03-11T16:06:47;8.40;46.00
68215;DHT22;55036;52.138;5.236;2023-03-11T16:09:32;8.40;45.50
68215;DHT22;55036;52.138;5.236;2023-03-11T16:12:00;8.30;46.10
68215;DHT22;55036;52.138;5.236;2023-03-11T16:14:27;8.30;46.30
68215;DHT22;55036;52.138;5.236;2023-03-11T16:16:54;8.30;46.20
68215;DHT22;55036;52.138;5.236;2023-03-11T16:19:20;8.40;45.80
68215;DHT22;55036;52.138;5.236;2023-03-11T16:21:47;8.40;45.20
68215;DHT22;55036;52.138;5.236;2023-03-11T16:24:18;8.30;45.50
68215;DHT22;55036;52.138;5.236;2023-03-11T16:26:46;8.20;45.70
68215;DHT22;55036;52.138;5.236;2023-03-11T16:29:13;8.10;45.30
68215;DHT22;55036;52.138;5.236;2023-03-11T16:31:45;8.00;45.70
68215;DHT22;55036;52.138;5.236;2023-03-11T16:34:12;7.80;45.80
68215;DHT22;55036;52.138;5.236;2023-03-11T16:36:39;7.80;45.30
68215;DHT22;55036;52.138;5.236;2023-03-11T16:39:05;7.80;46.20
68215;DHT22;55036;52.138;5.236;2023-03-11T16:41:42;7.90;46.90
68215;DHT22;55036;52.138;5.236;2023-03-11T16:44:10;8.00;46.60
68215;DHT22;55036;52.138;5.236;2023-03-11T16:46:37;8.00;46.60
68215;DHT22;55036;52.138;5.236;2023-03-11T16:49:04;7.90;46.50
68215;DHT22;55036;52.138;5.236;2023-03-11T16:51:31;8.00;46.80
68215;DHT22;55036;52.138;5.236;2023-03-11T16:53:58;7.80;46.10
68215;DHT22;55036;52.138;5.236;2023-03-11T16:56:25;7.60;47.20
68215;DHT22;55036;52.138;5.236;2023-03-11T16:58:51;7.70;47.20
68215;DHT22;55036;52.138;5.236;2023-03-11T17:01:18;7.70;47.30
68215;DHT22;55036;52.138;5.236;2023-03-11T17:03:48;7.70;47.60
68215;DHT22;55036;52.138;5.236;2023-03-11T17:06:16;7.80;48.30
68215;DHT22;55036;52.138;5.236;2023-03-11T17:08:43;7.80;48.70
68215;DHT22;55036;52.138;5.236;2023-03-11T17:11:16;7.70;48.70
68215;DHT22;55036;52.138;5.236;2023-03-11T17:13:43;7.70;49.50
68215;DHT22;55036;52.138;5.236;2023-03-11T17:16:10;7.60;49.80
68215;DHT22;55036;52.138;5.236;2023-03-11T17:18:37;7.70;50.00
68215;DHT22;55036;52.138;5.236;2023-03-11T17:21:09;7.60;50.00
68215;DHT22;55036;52.138;5.236;2023-03-11T17:23:36;7.60;50.60
68215;DHT22;55036;52.138;5.236;2023-03-11T17:26:10;7.60;51.30
68215;DHT22;55036;52.138;5.236;2023-03-11T17:28:38;7.50;51.40
68215;DHT22;55036;52.138;5.236;2023-03-11T17:31:12;7.50;51.80
68215;DHT22;55036;52.138;5.236;2023-03-11T17:33:39;7.40;52.60
68215;DHT22;55036;52.138;5.236;2023-03-11T17:36:08;7.30;52.80
68215;DHT22;55036;52.138;5.236;2023-03-11T17:38:36;7.20;53.10
68215;DHT22;55036;52.138;5.236;2023-03-11T17:41:07;7.10;53.70
68215;DHT22;55036;52.138;5.236;2023-03-11T17:43:34;7.00;54.10